createdAt,value
2019-05-01T14:48:17.130Z,20.70
2019-05-01T14:49:17.064Z,23.80
2019-05-01T14:50:17.069Z,11.40
2019-05-01T14:51:17.058Z,10.90
2019-05-01T14:52:17.076Z,13.00
2019-05-01T14:53:17.110Z,11.70
2019-05-01T14:54:17.081Z,8.90
2019-05-01T14:55:17.085Z,12.90
2019-05-01T14:56:17.084Z,13.70
2019-05-01T14:57:17.089Z,10.50
2019-05-01T14:58:17.096Z,9.40
2019-05-01T14:59:17.126Z,9.60
2019-05-01T15:00:17.124Z,12.10
2019-05-01T15:01:17.105Z,9.30
2019-05-01T15:02:17.108Z,8.20
2019-05-01T15:03:17.112Z,7.90
2019-05-01T15:04:17.135Z,8.70
2019-05-01T15:05:17.132Z,6.00
2019-05-01T15:06:17.124Z,7.60
2019-05-01T15:07:17.124Z,8.10
2019-05-01T15:08:17.114Z,9.50
2019-05-01T15:09:17.153Z,7.80
2019-05-01T15:10:17.130Z,7.90
2019-05-01T15:11:17.138Z,8.80
2019-05-01T15:12:17.153Z,7.50
2019-05-01T15:13:17.136Z,8.70
2019-05-01T15:14:17.162Z,8.80
2019-05-01T15:15:17.170Z,7.40
2019-05-01T15:16:17.181Z,8.10
2019-05-01T15:17:17.186Z,9.00
2019-05-01T15:18:17.183Z,8.40
2019-05-01T15:19:17.223Z,8.00
2019-05-01T15:20:17.272Z,8.90
2019-05-01T15:21:17.202Z,7.40
2019-05-01T15:22:17.217Z,8.80
2019-05-01T15:23:17.218Z,8.40
2019-05-01T15:24:17.260Z,7.10
2019-05-01T15:25:17.226Z,6.10
2019-05-01T15:26:17.229Z,7.60
2019-05-01T15:27:17.261Z,7.10
2019-05-01T15:28:17.251Z,7.70
2019-05-01T15:29:17.287Z,8.10
2019-05-01T15:30:17.260Z,5.10
2019-05-01T15:31:17.283Z,6.60
2019-05-01T15:32:17.296Z,8.60
2019-05-01T15:33:17.294Z,5.40
2019-05-01T15:34:17.326Z,7.30
2019-05-01T15:35:17.357Z,8.10
2019-05-01T15:36:17.314Z,6.60
2019-05-01T15:37:17.346Z,5.90
2019-05-01T15:38:17.325Z,6.70
2019-05-01T15:39:17.344Z,6.30
2019-05-01T15:40:17.418Z,6.60
2019-05-01T15:41:17.383Z,7.50
2019-05-01T15:42:17.385Z,7.60
2019-05-01T15:43:17.385Z,7.30
2019-05-01T15:44:17.405Z,7.60
2019-05-01T15:45:17.454Z,7.10
2019-05-01T15:46:17.419Z,7.90
2019-05-01T15:47:17.423Z,5.70
2019-05-01T15:48:17.449Z,7.00
2019-05-01T15:49:17.452Z,5.80
2019-05-01T15:50:17.477Z,7.40
2019-05-01T15:51:17.462Z,7.00
2019-05-01T15:52:17.474Z,8.20
2019-05-01T15:53:17.487Z,6.50
2019-05-01T15:54:17.494Z,8.20
2019-05-01T15:55:17.522Z,7.30
2019-05-01T15:56:17.576Z,6.00
2019-05-01T15:57:17.511Z,8.10
2019-05-01T15:58:17.531Z,7.50
2019-05-01T15:59:17.538Z,7.80
2019-05-01T16:00:17.570Z,6.70
2019-05-01T16:01:17.561Z,9.10
2019-05-01T16:02:17.579Z,6.60
2019-05-01T16:03:17.601Z,6.20
2019-05-01T16:04:17.622Z,5.10
2019-05-01T16:05:17.665Z,5.20
2019-05-01T16:06:17.668Z,6.60
2019-05-01T16:07:17.667Z,9.50
2019-05-01T16:08:17.691Z,6.80
2019-05-01T16:09:17.697Z,7.60
2019-05-01T16:10:17.759Z,7.90
2019-05-01T16:11:17.751Z,7.30
2019-05-01T16:12:17.766Z,8.20
2019-05-01T16:13:17.787Z,6.20
2019-05-01T16:14:17.798Z,8.20
2019-05-01T16:15:17.857Z,6.30
2019-05-01T16:16:17.885Z,6.70
2019-05-01T16:17:17.896Z,7.40
2019-05-01T16:18:17.933Z,7.80
2019-05-01T16:19:17.945Z,7.40
2019-05-01T16:20:17.964Z,8.50
2019-05-01T16:21:18.016Z,6.90
2019-05-01T16:22:18.008Z,7.30
2019-05-01T16:23:18.034Z,6.20
2019-05-01T16:24:18.057Z,7.20
2019-05-01T16:25:18.086Z,5.70
2019-05-01T16:26:18.123Z,7.50
2019-05-01T16:27:18.134Z,5.40
2019-05-01T16:28:18.156Z,8.30
2019-05-01T16:29:18.191Z,6.50
2019-05-01T16:30:18.216Z,6.60
2019-05-01T16:31:18.246Z,10.00
2019-05-01T16:32:18.251Z,7.60
2019-05-01T16:33:18.262Z,9.10
2019-05-01T16:34:18.292Z,6.40
2019-05-01T16:35:18.299Z,9.30
2019-05-01T16:36:20.404Z,7.70
2019-05-01T16:37:18.361Z,9.20
2019-05-01T16:38:22.982Z,9.20
2019-05-01T16:39:19.391Z,9.70
2019-05-01T16:40:18.390Z,8.10
2019-05-01T16:41:18.443Z,8.60
2019-05-01T16:42:18.471Z,10.70
2019-05-01T16:43:18.471Z,8.30
2019-05-01T16:44:18.488Z,10.70
2019-05-01T16:45:18.492Z,9.10
2019-05-01T16:46:18.529Z,8.20
2019-05-01T16:47:18.523Z,8.90
2019-05-01T16:48:18.570Z,9.50
2019-05-01T16:49:18.601Z,7.50
2019-05-01T16:50:18.592Z,8.90
2019-05-01T16:51:18.638Z,8.60
2019-05-01T16:52:18.677Z,10.80
2019-05-01T16:53:18.660Z,8.90
2019-05-01T16:54:18.687Z,8.70
2019-05-01T16:55:18.696Z,10.90
2019-05-01T16:56:18.716Z,7.70
2019-05-01T16:57:18.775Z,7.90
2019-05-01T16:58:18.767Z,8.30
2019-05-01T16:59:18.795Z,7.50
2019-05-01T17:00:18.836Z,12.80
2019-05-01T17:01:18.835Z,9.70
2019-05-01T17:02:18.876Z,6.70
2019-05-01T17:03:18.865Z,8.60
2019-05-01T17:04:18.911Z,8.00
2019-05-01T17:05:18.916Z,9.60
2019-05-01T17:06:18.949Z,6.90
2019-05-01T17:07:18.999Z,6.10
2019-05-01T17:08:18.991Z,7.80
2019-05-01T17:09:19.003Z,8.70
2019-05-01T17:10:19.027Z,6.60
2019-05-01T17:11:19.043Z,8.50
2019-05-01T17:12:19.130Z,8.60
2019-05-01T17:13:19.092Z,9.90
2019-05-01T17:14:19.143Z,8.90
2019-05-01T17:15:19.141Z,7.80
2019-05-01T17:16:19.160Z,7.00
2019-05-01T17:17:19.181Z,7.60
2019-05-01T17:18:19.241Z,7.40
2019-05-01T17:19:19.227Z,7.50
2019-05-01T17:20:19.247Z,7.40
2019-05-01T17:21:19.270Z,7.70
2019-05-01T17:22:19.291Z,8.20
2019-05-01T17:23:19.349Z,7.40
2019-05-01T17:24:19.340Z,7.10
2019-05-01T17:25:19.362Z,7.80
2019-05-01T17:26:19.409Z,6.70
2019-05-01T17:27:19.419Z,9.60
2019-05-01T17:28:19.489Z,6.50
2019-05-01T17:29:19.476Z,7.40
2019-05-01T17:30:19.489Z,5.70
2019-05-01T17:31:19.534Z,10.10
2019-05-01T17:32:19.560Z,6.80
2019-05-01T17:33:21.674Z,8.50
2019-05-01T17:34:19.617Z,8.30
2019-05-01T17:35:19.617Z,10.00
2019-05-01T17:36:19.637Z,6.10
2019-05-01T17:37:19.656Z,7.10
2019-05-01T17:38:19.676Z,6.10
2019-05-01T17:39:19.736Z,8.50
2019-05-01T17:40:19.716Z,8.20
2019-05-01T17:41:22.612Z,7.00
2019-05-01T17:42:20.745Z,8.80
2019-05-01T17:43:19.781Z,6.40
2019-05-01T17:44:19.964Z,7.60
2019-05-01T17:45:19.843Z,8.70
2019-05-01T17:46:19.850Z,8.30
2019-05-01T17:47:22.492Z,7.70
2019-05-01T17:48:19.903Z,11.80
2019-05-01T17:49:19.944Z,31.80
2019-05-01T17:50:21.148Z,95.70
2019-05-01T17:51:20.105Z,255.00
2019-05-01T17:52:19.988Z,353.80
2019-05-01T17:53:20.016Z,360.50
2019-05-01T17:54:20.075Z,333.40
2019-05-01T17:55:20.071Z,299.90
2019-05-01T17:56:27.577Z,274.60
2019-05-01T17:57:21.091Z,244.40
2019-05-01T17:58:20.130Z,232.60
2019-05-01T17:59:20.183Z,234.10
2019-05-01T18:00:20.201Z,230.70
2019-05-01T18:01:20.199Z,228.40
2019-05-01T18:02:20.208Z,231.10
2019-05-01T18:03:20.252Z,238.60
2019-05-01T18:04:20.258Z,247.80
2019-05-01T18:05:20.321Z,253.60
2019-05-01T18:06:20.329Z,251.60
2019-05-01T18:07:20.363Z,250.70
2019-05-01T18:08:20.358Z,247.30
2019-05-01T18:09:20.428Z,243.00
2019-05-01T18:10:20.418Z,242.90
2019-05-01T18:11:20.450Z,239.80
2019-05-01T18:12:23.453Z,246.70
2019-05-01T18:13:21.499Z,239.70
2019-05-01T18:14:20.613Z,242.00
2019-05-01T18:15:20.556Z,239.20
2019-05-01T18:16:20.569Z,236.20
2019-05-01T18:17:20.597Z,237.30
2019-05-01T18:18:20.617Z,235.80
2019-05-01T18:19:20.700Z,227.60
2019-05-01T18:20:20.725Z,227.40
2019-05-01T18:21:20.698Z,223.10
2019-05-01T18:22:20.725Z,225.60
2019-05-01T18:23:20.756Z,209.90
2019-05-01T18:24:23.293Z,219.20
2019-05-01T18:25:20.835Z,211.50
2019-05-01T18:26:20.854Z,212.00
2019-05-01T18:27:20.894Z,210.00
2019-05-01T18:28:25.030Z,207.20
2019-05-01T18:29:21.971Z,206.80
2019-05-01T18:30:27.247Z,198.60
2019-05-01T18:31:20.966Z,198.30
2019-05-01T18:32:20.996Z,201.70
2019-05-01T18:33:22.056Z,194.50
2019-05-01T18:34:21.058Z,192.90
2019-05-01T18:35:21.118Z,194.30
2019-05-01T18:36:24.615Z,191.30
2019-05-01T18:37:21.141Z,186.50
2019-05-01T18:38:21.172Z,189.60
2019-05-01T18:39:21.967Z,183.50
2019-05-01T18:40:21.224Z,181.90
2019-05-01T18:41:21.274Z,179.80
2019-05-01T18:42:21.284Z,178.40
2019-05-01T18:43:21.303Z,176.20
2019-05-01T18:44:21.354Z,173.70
2019-05-01T18:45:24.898Z,172.90
2019-05-01T18:46:22.451Z,169.80
2019-05-01T18:47:21.455Z,173.60
2019-05-01T18:48:21.481Z,172.40
2019-05-01T18:49:21.529Z,177.10
2019-05-01T18:50:21.543Z,175.30
2019-05-01T18:51:21.572Z,168.90
2019-05-01T18:52:21.607Z,172.50
2019-05-01T18:53:21.613Z,162.60
2019-05-01T18:54:21.661Z,164.30
2019-05-01T18:55:21.672Z,156.70
2019-05-01T18:56:21.746Z,159.90
2019-05-01T18:57:21.771Z,159.70
2019-05-01T18:58:21.778Z,153.40
2019-05-01T18:59:21.823Z,152.10
2019-05-01T19:00:21.829Z,150.70
2019-05-01T19:01:21.900Z,146.40
2019-05-01T19:02:25.037Z,145.50
2019-05-01T19:03:22.572Z,140.60
2019-05-01T19:04:23.548Z,145.10
2019-05-01T19:05:22.020Z,143.40
2019-05-01T19:06:22.066Z,135.30
2019-05-01T19:07:22.068Z,137.50
2019-05-01T19:08:22.186Z,135.70
2019-05-01T19:09:29.670Z,135.10
2019-05-01T19:10:23.178Z,134.90
2019-05-01T19:11:22.291Z,134.60
2019-05-01T19:12:22.287Z,131.60
2019-05-01T19:13:22.287Z,128.80
2019-05-01T19:14:23.516Z,126.50
2019-05-01T19:15:25.460Z,130.10
2019-05-01T19:16:22.412Z,119.80
2019-05-01T19:17:22.450Z,122.70
2019-05-01T19:18:22.526Z,116.50
2019-05-01T19:19:22.513Z,117.90
2019-05-01T19:20:22.592Z,115.00
2019-05-01T19:21:23.868Z,117.30
2019-05-01T19:22:22.638Z,109.30
2019-05-01T19:23:27.725Z,112.80
2019-05-01T19:24:23.693Z,113.20
2019-05-01T19:25:22.732Z,107.30
2019-05-01T19:26:22.753Z,111.40
2019-05-01T19:27:24.259Z,108.30
2019-05-01T19:28:22.836Z,107.90
2019-05-01T19:29:26.649Z,104.50
2019-05-01T19:30:23.901Z,102.80
2019-05-01T19:31:22.975Z,105.50
2019-05-01T19:32:23.023Z,98.00
2019-05-01T19:33:23.025Z,98.60
2019-05-01T19:34:23.108Z,96.30
2019-05-01T19:35:23.754Z,95.70
2019-05-01T19:36:24.183Z,80.40
2019-05-01T19:37:23.932Z,73.90
2019-05-01T19:38:23.243Z,74.10
2019-05-01T19:39:23.234Z,69.50
2019-05-01T19:40:25.219Z,66.50
2019-05-01T19:41:24.310Z,65.00
2019-05-01T19:42:23.670Z,67.90
2019-05-01T19:43:23.421Z,64.40
2019-05-01T19:44:23.469Z,64.60
2019-05-01T19:45:23.525Z,67.00
2019-05-01T19:46:23.540Z,62.40
2019-05-01T19:47:23.632Z,62.20
2019-05-01T19:48:23.623Z,59.40
2019-05-01T19:49:24.493Z,59.30
2019-05-01T19:50:24.710Z,59.40
2019-05-01T19:51:25.830Z,60.10
2019-05-01T19:52:23.756Z,57.60
2019-05-01T19:53:23.874Z,54.60
2019-05-01T19:54:28.106Z,55.00
2019-05-01T19:55:24.899Z,57.30
2019-05-01T19:56:23.935Z,57.80
2019-05-01T19:57:23.991Z,51.60
2019-05-01T19:58:24.055Z,48.20
2019-05-01T19:59:24.119Z,52.90
2019-05-01T20:00:24.126Z,50.80
2019-05-01T20:01:24.154Z,47.80
2019-05-01T20:02:24.266Z,47.30
2019-05-01T20:03:24.266Z,47.00
2019-05-01T20:04:24.299Z,47.60
2019-05-01T20:05:27.213Z,44.80
2019-05-01T20:06:24.362Z,45.40
2019-05-01T20:07:24.393Z,42.90
2019-05-01T20:08:24.504Z,42.80
2019-05-01T20:09:24.473Z,42.40
2019-05-01T20:10:24.521Z,44.20
2019-05-01T20:11:24.564Z,38.90
2019-05-01T20:12:24.601Z,38.10
2019-05-01T20:13:24.677Z,39.90
2019-05-01T20:14:24.732Z,38.90
2019-05-01T20:15:26.495Z,36.40
2019-05-01T20:16:24.788Z,37.50
2019-05-01T20:17:24.853Z,35.80
2019-05-01T20:18:24.878Z,34.50
2019-05-01T20:19:24.951Z,34.40
2019-05-01T20:20:24.968Z,35.30
2019-05-01T20:21:25.028Z,33.60
2019-05-01T20:22:25.072Z,34.10
2019-05-01T20:23:25.990Z,34.20
2019-05-01T20:24:26.202Z,44.40
